Aktualne dane pomiarowe

Uwaga, wersja testowa! Automatyczne pobieranie danych za pomocą narzędzi lub skryptów to umożliwiających jest zabronione.

Dane meteo z obszaru Polski uzyskane na podstawie depesz SYNOP pobieranych co godzinę z NWS. Najedź myszką na symbol przedstawiony w tabeli, aby uzyskać informacje co do jego znaczenia. Prosimy pamiętać, że to testowa wersja strony, która jeszcze nie jest ukończona. Stworzono również jest krótki FAQ dotyczący korzystania z tej podstrony Anomalie temperatury w chwili obecnej odniesione są do okresu referencyjnego 1951-2016. Okres ten będzie później zmieniony na 1981-2010. Kliknij ikonę aby pobrać plik CSV. Kliknij ikonę aby wygenerować mapę synoptyczną dla danego terminu.

Wybierz Datę:    

        

Chojnice (12235)

Dane terminowe dla wybranej stacji. Kliknij datę, aby otrzymać dane z tego terminu dla wszystkich stacji.

TemperaturaZachmurzenieWiatrCiśnienieOpadyPogoda
 Data t td wb tx tn tg rh  Nt Nl Cl Cm Ch ws wd g1 g2 wx mslp ppp ch 24h 12h t ww ww w1 w2  
2019-08-08 23:00:00 12.3 12.1 12.1--- 999.0wx-3wx--31011.1 990.5 0.6---wx---
2019-08-08 22:00:00 12.1 11.7 11.8--- 977.0wx-wx2wx--21011.2 990.5 0.4---wx---
2019-08-08 21:00:00 12.4 12.0 12.1--- 9710.0wxwxwxwx2wx--21010.7 990.1 -1.3---wx-w1w2--
2019-08-08 20:00:00 13.1 12.4 12.6--- 9618.0wxwxwxwx1wx---1010.5 989.9 1.3---------
2019-08-08 19:00:00 13.5 12.7 12.9--- 9535.0wxwxwxwx2wx--21010.6 990.1 1.1---wx-w1w2--
2019-08-08 18:00:00 14.7 12.8 13.4 24.2 14.7- 883.0wxwxwx7wx121271011.9 991.4 2.6- 5.012wx-w1w2--
2019-08-08 17:00:00 17.7 14.7 15.6--- 8335.0wxwxwxwx1wx--11008.8 988.6 0.0---------
2019-08-08 16:00:00 17.7 15.2 15.9--- 8535.0wxwxwxwx2wx---1009.2 989.0 0.3---wx-w1w2--
2019-08-08 15:00:00 22.5 10.7 15.4--- 4740.0wxwxwxwx2wx---1008.7 988.8 -0.2---wx---
2019-08-08 14:00:00 23.5 11.0 16.0--- 4535.0wxwxwxwx5wx--51008.4 988.6 -0.2---------
2019-08-08 13:00:00 22.9 10.8 15.7--- 4640.0wxwxwxwx5wx--51008.6 988.7 0.1---------
2019-08-08 12:00:00 22.4 12.1 16.1--- 5228.0wxwxwxwx5wx-1251008.9 989.0 0.6- 0.06------
2019-08-08 11:00:00 22.5 11.6 15.9--- 5027.0wxwxwx5wx121251008.7 988.8 0.6---------
2019-08-08 10:00:00 20.9 12.7 15.7--- 5935.0wxwxwx4wx--41008.6 988.6 1.0---------
2019-08-08 09:00:00 20.5 13.8 16.2--- 6529.0wxwxwx4wx-1041008.4 988.4 1.4---------
2019-08-08 08:00:00 19.5 13.8 15.8--- 7030.0wxwxwx4wx9941008.3 988.2 1.5---------
2019-08-08 07:00:00 18.5 14.7 15.9--- 7929.0wxwxwx4wx-1041007.7 987.6 1.5---------
2019-08-08 06:00:00 17.7 15.6 16.2 18.4 16.6 16 8816.0wxwxwx3wx--31007.2 987.0 1.3 4.5-12----- 8.0
2019-08-08 05:00:00 17.0 15.8 16.1--- 939.0wxwxwxwx3wx---1006.9 986.7 1.5---wx---
2019-08-08 04:00:00 16.6 15.9 16.1--- 965.0wxwxwxwx2wx---1006.3 986.1 1.1---wx---
2019-08-08 03:00:00 17.0 16.1 16.3--- 948.0wxwxwx3wx--31005.9 985.7 1.0---wx---
2019-08-08 02:00:00 17.0 16.3 16.5--- 969.0wxwxwx3wx--31005.4 985.2 0.1---wx---
2019-08-08 01:00:00 16.8 16.3 16.4--- 976.0wxwxwx3wx--31005.2 985.0 0.0---wx---
2019-08-08 00:00:00 16.7 16.0 16.2--- 9610.0wx-wx3wx--31004.9 984.7 -0.5--6wx-w1--
2019-08-07 23:00:00 16.8 15.9 16.1--- 9412.0wx-wx3wx--31005.3 985.1 0.0---------
2019-08-07 22:00:00 17.3 16.9 17.0--- 983.0wx-wx3wx--31005.2 985.0 0.0---wx---
2019-08-07 21:00:00 17.6 17.2 17.3--- 982.3wx-wx2wx--21005.3 985.2 -0.1---wx-w1--
2019-08-07 20:00:00 18.0 17.5 17.6--- 973.0wx-wx1wx---1005.2 985.1 -1.0---wx---
2019-08-07 19:00:00 18.1 17.6 17.7--- 973.5wx-wx1wx---1005.1 985.0 0.0---wx---
2019-08-07 18:00:00 18.4 17.5 17.7 26.5 17.5- 954.4wxwxwxwx0--1101005.4 985.3 -0.1- 5.012wx-w1--
2019-08-07 17:00:00 19.0 17.4 17.8--- 906.0wxwxwx5wx--51006.2 986.1 0.2---wx-w1w2--
2019-08-07 16:00:00 23.8 14.6 17.9--- 5622.0wxwxwx2wx--21004.7 985.0 -1.2---wx---
2019-08-07 15:00:00 25.0 13.0 17.6--- 4745.0wxwxwxwx2wx-1121005.0 985.4 -1.4---------
2019-08-07 14:00:00 25.1 12.8 17.5--- 4630.0wxwxwxwx3wx---1005.6 985.9 -1.3---------
2019-08-07 13:00:00 26.4 12.5 17.9--- 4230.0wxwxwxwx4wx-1141005.8 986.2 -1.5---------
2019-08-07 12:00:00 24.8 13.8 17.9--- 5030.0wxwxwxwx3wx--31006.5 986.8 -0.8- 0.06------
2019-08-07 11:00:00 24.4 13.1 17.4--- 4929.0wxwxwxwx3wx--31006.9 987.2 -0.6---------
2019-08-07 10:00:00 22.4 15.6 17.9--- 6527.0wxwxwxwx2wx--21007.6 987.7 -0.3---------
2019-08-07 09:00:00 21.0 15.6 17.4--- 7126.0wxwxwxwx2wx--21007.6 987.6 -0.2---------
2019-08-07 08:00:00 19.5 15.9 17.0--- 8025.0wxwxwxwxwx2wx--21007.9 987.8 0.0---------
2019-08-07 07:00:00 18.3 16.0 16.7--- 8616.0wxwxwxwx2wx--21008.2 988.0 0.5---------
2019-08-07 06:00:00 17.6 16.2 16.6 18.4 14.3 13 9216.0wx-wx1wx--11008.0 987.8 0.5 2.0 0.012----- 6.7
2019-08-07 05:00:00 15.9 15.7 15.7--- 997.0wx-wx1wx--11008.1 987.8 0.1---wx---
2019-08-07 04:00:00 14.4 14.0 14.1--- 974.0wx-wxwx0----1007.9 987.5 -0.7---wx---
2019-08-07 03:00:00 15.1 14.7 14.8--- 973.5wx-wxwx1wx--11007.7 987.3 -1.2---wx---
2019-08-07 02:00:00 15.8 15.4 15.5--- 978.0wx-wx1wx--11008.0 987.7 -0.6---wx---
2019-08-07 01:00:00 16.1 15.6 15.7--- 974.0wxwxwxwx1wx--11008.5 988.2 0.1---wx---
2019-08-07 00:00:00 16.4 15.7 15.9--- 9610.0wxwxwxwx2wx--21008.8 988.5 0.4- 0.06wx-w1--
1.1 ms

 

Print Friendly, PDF & Email